Time,TemperatureF,DewpointF,PressureIn,WindDirection,WindDirectionDegrees,WindSpeedMPH,WindSpeedGustMPH,Humidity,HourlyPrecipIn,Conditions,Clouds,dailyrainin,SolarRadiationWatts/m^2,SoftwareType,DateUTC
2013-05-10 00:03:00,70.0,64.0,-100.00,ESE,108,4.0,-999.0,81,0.00,,,-99.99,0.000000,,2013-05-10 04:03:00,
2013-05-10 00:12:00,69.0,63.0,-100.00,East,88,3.0,-999.0,82,0.00,,,-99.99,0.000000,,2013-05-10 04:12:00,
2013-05-10 00:23:00,69.0,63.0,-100.00,East,88,3.0,-999.0,82,0.00,,,-99.99,0.000000,,2013-05-10 04:23:00,
2013-05-10 00:33:00,69.0,64.0,-100.00,East,87,3.0,-999.0,84,0.00,,,-99.99,0.000000,,2013-05-10 04:33:00,
2013-05-10 00:43:00,69.0,64.0,-100.00,East,97,4.0,-999.0,85,0.00,,,-99.99,0.000000,,2013-05-10 04:43:00,
2013-05-10 00:53:00,69.0,64.0,-100.00,East,97,4.0,-999.0,85,0.00,,,-99.99,0.000000,,2013-05-10 04:53:00,
2013-05-10 01:02:00,68.0,64.0,-100.00,ESE,108,3.0,-999.0,86,0.00,,,-99.99,0.000000,,2013-05-10 05:02:00,
2013-05-10 01:12:00,69.0,65.0,-100.00,ESE,112,4.0,-999.0,87,0.00,,,-99.99,0.000000,,2013-05-10 05:12:00,
2013-05-10 01:22:00,69.0,65.0,-100.00,ESE,112,4.0,-999.0,87,0.00,,,-99.99,0.000000,,2013-05-10 05:22:00,
2013-05-10 01:32:00,68.0,64.0,-100.00,East,90,3.0,-999.0,87,0.00,,,-99.99,0.000000,,2013-05-10 05:32:00,
2013-05-10 01:42:00,67.0,64.0,-100.00,East,87,3.0,-999.0,88,0.00,,,-99.99,0.000000,,2013-05-10 05:42:00,
2013-05-10 01:52:00,67.0,64.0,-100.00,East,87,3.0,-999.0,88,0.00,,,-99.99,0.000000,,2013-05-10 05:52:00,
2013-05-10 02:02:00,67.0,64.0,-100.00,East,87,3.0,-999.0,88,0.00,,,-99.99,0.000000,,2013-05-10 06:02:00,
2013-05-10 02:12:00,67.0,64.0,-100.00,East,85,3.0,-999.0,89,0.00,,,-99.99,0.000000,,2013-05-10 06:12:00,
2013-05-10 02:21:00,67.0,64.0,-100.00,East,85,3.0,-999.0,89,0.00,,,-99.99,0.000000,,2013-05-10 06:21:00,
2013-05-10 02:32:00,67.0,64.0,-100.00,East,81,3.0,-999.0,90,0.00,,,-99.99,0.000000,,2013-05-10 06:32:00,
2013-05-10 02:42:00,67.0,64.0,-100.00,ENE,71,4.0,-999.0,90,0.00,,,-99.99,0.000000,,2013-05-10 06:42:00,
2013-05-10 02:52:00,67.0,64.0,-100.00,ENE,71,4.0,-999.0,90,0.00,,,-99.99,0.000000,,2013-05-10 06:52:00,
2013-05-10 03:02:00,66.0,63.0,-100.00,ENE,58,4.0,-999.0,91,0.00,,,-99.99,0.000000,,2013-05-10 07:02:00,
2013-05-10 03:12:00,66.0,64.0,-100.00,ENE,76,3.0,-999.0,92,0.00,,,-99.99,0.000000,,2013-05-10 07:12:00,
2013-05-10 03:22:00,66.0,64.0,-100.00,ENE,76,3.0,-999.0,92,0.00,,,-99.99,0.000000,,2013-05-10 07:22:00,
2013-05-10 03:31:00,66.0,64.0,-100.00,ENE,76,3.0,-999.0,92,0.00,,,-99.99,0.000000,,2013-05-10 07:31:00,
2013-05-10 03:42:00,66.0,64.0,-100.00,ENE,76,3.0,-999.0,92,0.00,,,-99.99,0.000000,,2013-05-10 07:42:00,
2013-05-10 03:52:00,66.0,64.0,-100.00,ENE,76,3.0,-999.0,92,0.00,,,-99.99,0.000000,,2013-05-10 07:52:00,
2013-05-10 04:02:00,66.0,64.0,-100.00,East,83,3.0,-999.0,93,0.00,,,-99.99,0.000000,,2013-05-10 08:02:00,
2013-05-10 04:12:00,67.0,65.0,-100.00,East,81,3.0,-999.0,93,0.00,,,-99.99,0.000000,,2013-05-10 08:12:00,
2013-05-10 04:22:00,67.0,65.0,-100.00,East,81,3.0,-999.0,93,0.00,,,-99.99,0.000000,,2013-05-10 08:22:00,
2013-05-10 04:32:00,67.0,65.0,-100.00,East,79,3.0,-999.0,93,0.00,,,-99.99,0.000000,,2013-05-10 08:32:00,
2013-05-10 04:42:00,66.0,65.0,-100.00,ENE,61,3.0,-999.0,94,0.00,,,-99.99,0.000000,,2013-05-10 08:42:00,
2013-05-10 04:52:00,66.0,65.0,-100.00,ENE,61,3.0,-999.0,94,0.00,,,-99.99,0.000000,,2013-05-10 08:52:00,
2013-05-10 05:01:00,67.0,65.0,-100.00,ENE,71,4.0,-999.0,94,0.00,,,-99.99,0.000000,,2013-05-10 09:01:00,
2013-05-10 05:11:00,67.0,65.0,-100.00,ENE,77,3.0,-999.0,94,0.00,,,-99.99,0.600000,,2013-05-10 09:11:00,
2013-05-10 05:21:00,67.0,65.0,-100.00,ENE,77,3.0,-999.0,94,0.00,,,-99.99,0.600000,,2013-05-10 09:21:00,
2013-05-10 05:32:00,67.0,66.0,-100.00,East,96,3.0,-999.0,94,0.00,,,-99.99,1.100000,,2013-05-10 09:32:00,
2013-05-10 05:43:00,68.0,67.0,-100.00,SE,125,3.0,-999.0,95,0.00,,,-99.99,1.300000,,2013-05-10 09:43:00,
2013-05-10 05:52:00,68.0,67.0,-100.00,SE,125,3.0,-999.0,95,0.00,,,-99.99,1.300000,,2013-05-10 09:52:00,
2013-05-10 06:03:00,68.0,67.0,-100.00,ESE,113,4.0,-999.0,95,0.00,,,-99.99,1.400000,,2013-05-10 10:03:00,
2013-05-10 06:12:00,68.0,67.0,-100.00,ESE,113,4.0,-999.0,95,0.00,,,-99.99,1.400000,,2013-05-10 10:12:00,
2013-05-10 06:23:00,68.0,66.0,-100.00,East,83,3.0,-999.0,95,0.00,,,-99.99,1.400000,,2013-05-10 10:23:00,
2013-05-10 06:32:00,67.0,65.0,-100.00,ENE,67,4.0,-999.0,95,0.00,,,-99.99,1.400000,,2013-05-10 10:32:00,
2013-05-10 06:42:00,67.0,65.0,-100.00,ENE,67,4.0,-999.0,95,0.00,,,-99.99,1.400000,,2013-05-10 10:42:00,
2013-05-10 06:53:00,66.0,65.0,-100.00,ENE,63,4.0,-999.0,95,0.00,,,-99.99,1.600000,,2013-05-10 10:53:00,
2013-05-10 07:02:00,66.0,65.0,-100.00,ENE,61,3.0,-999.0,95,0.00,,,-99.99,5.000000,,2013-05-10 11:02:00,
2013-05-10 07:12:00,66.0,65.0,-100.00,East,88,3.0,-999.0,95,0.00,,,-99.99,16.600000,,2013-05-10 11:12:00,
2013-05-10 07:22:00,66.0,65.0,-100.00,East,88,3.0,-999.0,95,0.00,,,-99.99,16.600000,,2013-05-10 11:22:00,
2013-05-10 07:32:00,67.0,66.0,-100.00,ESE,108,4.0,-999.0,96,0.00,,,-99.99,41.000000,,2013-05-10 11:32:00,
2013-05-10 07:42:00,68.0,67.0,-100.00,ESE,114,5.0,-999.0,96,0.00,,,-99.99,85.199997,,2013-05-10 11:42:00,
2013-05-10 07:52:00,68.0,67.0,-100.00,ESE,114,5.0,-999.0,96,0.00,,,-99.99,85.199997,,2013-05-10 11:52:00,
2013-05-10 08:01:00,69.0,68.0,-100.00,ESE,112,5.0,-999.0,96,0.00,,,-99.99,136.500000,,2013-05-10 12:01:00,
2013-05-10 08:12:00,71.0,69.0,-100.00,ESE,115,5.0,-999.0,95,0.00,,,-99.99,186.399994,,2013-05-10 12:12:00,
2013-05-10 08:21:00,71.0,69.0,-100.00,ESE,115,5.0,-999.0,95,0.00,,,-99.99,186.399994,,2013-05-10 12:21:00,
2013-05-10 08:32:00,72.0,71.0,-100.00,ESE,123,7.0,-999.0,95,0.00,,,-99.99,237.699997,,2013-05-10 12:32:00,
2013-05-10 08:42:00,73.0,72.0,-100.00,SE,129,8.0,-999.0,94,0.00,,,-99.99,290.700012,,2013-05-10 12:42:00,
2013-05-10 08:52:00,73.0,72.0,-100.00,SE,129,8.0,-999.0,94,0.00,,,-99.99,290.700012,,2013-05-10 12:52:00,
2013-05-10 09:01:00,75.0,73.0,-100.00,SE,135,8.0,-999.0,93,0.00,,,-99.99,340.700012,,2013-05-10 13:01:00,
2013-05-10 09:11:00,76.0,73.0,-100.00,SE,140,9.0,-999.0,91,0.00,,,-99.99,393.399994,,2013-05-10 13:11:00,
2013-05-10 09:21:00,76.0,73.0,-100.00,SE,140,9.0,-999.0,91,0.00,,,-99.99,393.399994,,2013-05-10 13:21:00,
2013-05-10 09:32:00,76.0,73.0,-100.00,SE,133,9.0,-999.0,89,0.00,,,-99.99,453.100006,,2013-05-10 13:32:00,
2013-05-10 09:42:00,78.0,73.0,-100.00,SE,135,8.0,-999.0,86,0.00,,,-99.99,496.000000,,2013-05-10 13:42:00,
2013-05-10 09:52:00,78.0,73.0,-100.00,SE,135,8.0,-999.0,86,0.00,,,-99.99,496.000000,,2013-05-10 13:52:00,
2013-05-10 10:02:00,79.0,73.0,-100.00,SE,138,9.0,-999.0,82,0.00,,,-99.99,539.200012,,2013-05-10 14:02:00,
2013-05-10 10:11:00,80.0,72.0,-100.00,SE,140,10.0,-999.0,78,0.00,,,-99.99,549.900024,,2013-05-10 14:11:00,
2013-05-10 10:21:00,80.0,72.0,-100.00,SE,140,10.0,-999.0,78,0.00,,,-99.99,549.900024,,2013-05-10 14:21:00,
2013-05-10 10:32:00,79.0,71.0,-100.00,SSE,159,10.0,-999.0,76,0.00,,,-99.99,321.200012,,2013-05-10 14:32:00,
2013-05-10 10:42:00,80.0,72.0,-100.00,SSE,148,12.0,-999.0,75,0.00,,,-99.99,768.000000,,2013-05-10 14:42:00,
2013-05-10 10:52:00,80.0,72.0,-100.00,SSE,148,12.0,-999.0,75,0.00,,,-99.99,768.000000,,2013-05-10 14:52:00,
2013-05-10 11:02:00,81.0,71.0,-100.00,SSE,152,11.0,-999.0,70,0.00,,,-99.99,591.500000,,2013-05-10 15:02:00,
2013-05-10 11:20:00,-999.0,-99.9,-100.00,SSE,153,13.0,-999.0,68,0.00,,,-99.99,683.400024,,2013-05-10 15:20:00,
2013-05-10 11:32:00,83.0,71.0,-100.00,SSE,159,12.0,-999.0,66,0.00,,,-99.99,763.000000,,2013-05-10 15:32:00,
2013-05-10 11:42:00,83.0,71.0,-100.00,SSE,159,12.0,-999.0,66,0.00,,,-99.99,763.000000,,2013-05-10 15:42:00,
2013-05-10 11:53:00,83.0,70.0,-100.00,SSE,154,12.0,-999.0,63,0.00,,,-99.99,804.000000,,2013-05-10 15:53:00,
2013-05-10 12:02:00,84.0,70.0,-100.00,SSE,163,12.0,-999.0,61,0.00,,,-99.99,874.000000,,2013-05-10 16:02:00,
2013-05-10 12:12:00,84.0,69.0,-100.00,SSE,161,9.0,-999.0,61,0.00,,,-99.99,382.500000,,2013-05-10 16:12:00,
2013-05-10 12:23:00,84.0,69.0,-100.00,SSE,161,9.0,-999.0,61,0.00,,,-99.99,382.500000,,2013-05-10 16:23:00,
2013-05-10 12:33:00,84.0,69.0,-100.00,SSE,153,10.0,-999.0,60,0.00,,,-99.99,494.899994,,2013-05-10 16:33:00,
2013-05-10 12:43:00,85.0,69.0,-100.00,South,172,10.0,-999.0,58,0.00,,,-99.99,948.000000,,2013-05-10 16:43:00,
2013-05-10 12:53:00,85.0,69.0,-100.00,South,172,10.0,-999.0,58,0.00,,,-99.99,948.000000,,2013-05-10 16:53:00,
2013-05-10 13:02:00,86.0,69.0,-100.00,South,179,8.0,-999.0,56,0.00,,,-99.99,775.000000,,2013-05-10 17:02:00,
2013-05-10 13:12:00,86.0,68.0,-100.00,South,175,7.0,-999.0,56,0.00,,,-99.99,633.500000,,2013-05-10 17:12:00,
2013-05-10 13:22:00,86.0,68.0,-100.00,South,175,7.0,-999.0,56,0.00,,,-99.99,633.500000,,2013-05-10 17:22:00,
2013-05-10 13:32:00,85.0,68.0,-100.00,South,189,6.0,-999.0,57,0.00,,,-99.99,447.700012,,2013-05-10 17:32:00,
2013-05-10 13:42:00,86.0,68.0,-100.00,SSW,196,6.0,-999.0,55,0.00,,,-99.99,819.000000,,2013-05-10 17:42:00,
2013-05-10 13:52:00,86.0,68.0,-100.00,SSW,196,6.0,-999.0,55,0.00,,,-99.99,819.000000,,2013-05-10 17:52:00,
2013-05-10 14:10:00,-999.0,-99.9,-100.00,SSW,205,9.0,-999.0,54,0.00,,,-99.99,561.299988,,2013-05-10 18:10:00,
2013-05-10 14:22:00,87.0,68.0,-100.00,SSW,201,8.0,-999.0,53,0.00,,,-99.99,861.000000,,2013-05-10 18:22:00,
2013-05-10 14:34:00,87.0,68.0,-100.00,South,184,6.0,-999.0,52,0.00,,,-99.99,911.000000,,2013-05-10 18:34:00,
2013-05-10 14:43:00,87.0,68.0,-100.00,South,180,5.0,-999.0,52,0.00,,,-99.99,554.799988,,2013-05-10 18:43:00,
2013-05-10 14:54:00,87.0,68.0,-100.00,South,180,5.0,-999.0,52,0.00,,,-99.99,554.799988,,2013-05-10 18:54:00,
2013-05-10 15:02:00,88.0,68.0,-100.00,SW,228,5.0,-999.0,51,0.00,,,-99.99,696.500000,,2013-05-10 19:02:00,
2013-05-10 15:11:00,89.0,67.0,-100.00,SSW,204,7.0,-999.0,48,0.00,,,-99.99,910.000000,,2013-05-10 19:11:00,
2013-05-10 15:21:00,89.0,67.0,-100.00,SSW,204,7.0,-999.0,48,0.00,,,-99.99,910.000000,,2013-05-10 19:21:00,
2013-05-10 15:32:00,88.0,66.0,-100.00,SSW,197,6.0,-999.0,48,0.00,,,-99.99,717.000000,,2013-05-10 19:32:00,
2013-05-10 15:42:00,88.0,67.0,-100.00,South,191,5.0,-999.0,48,0.00,,,-99.99,788.000000,,2013-05-10 19:42:00,
2013-05-10 15:52:00,88.0,67.0,-100.00,South,191,5.0,-999.0,48,0.00,,,-99.99,788.000000,,2013-05-10 19:52:00,
2013-05-10 16:01:00,89.0,66.0,-100.00,South,184,6.0,-999.0,46,0.00,,,-99.99,706.000000,,2013-05-10 20:01:00,
2013-05-10 16:12:00,89.0,66.0,-100.00,South,184,6.0,-999.0,46,0.00,,,-99.99,706.000000,,2013-05-10 20:12:00,
2013-05-10 16:21:00,89.0,65.0,-100.00,SSW,203,8.0,-999.0,44,0.00,,,-99.99,686.599976,,2013-05-10 20:21:00,
2013-05-10 16:32:00,89.0,64.0,-100.00,SSW,203,7.0,-999.0,42,0.00,,,-99.99,584.599976,,2013-05-10 20:32:00,
2013-05-10 16:42:00,91.0,64.0,-100.00,WSW,237,7.0,-999.0,41,0.00,,,-99.99,697.700012,,2013-05-10 20:42:00,
2013-05-10 16:52:00,91.0,64.0,-100.00,WSW,237,7.0,-999.0,41,0.00,,,-99.99,697.700012,,2013-05-10 20:52:00,
2013-05-10 17:02:00,90.0,62.0,-100.00,WSW,243,5.0,-999.0,39,0.00,,,-99.99,406.700012,,2013-05-10 21:02:00,
2013-05-10 17:11:00,91.0,64.0,-100.00,WNW,286,5.0,-999.0,40,0.00,,,-99.99,600.299988,,2013-05-10 21:11:00,
2013-05-10 17:25:00,91.0,64.0,-100.00,WNW,286,5.0,-999.0,40,0.00,,,-99.99,600.299988,,2013-05-10 21:25:00,
2013-05-10 17:32:00,91.0,63.0,-100.00,WSW,247,5.0,-999.0,38,0.00,,,-99.99,512.700012,,2013-05-10 21:32:00,
2013-05-10 17:43:00,91.0,63.0,-100.00,West,265,8.0,-999.0,38,0.00,,,-99.99,481.200012,,2013-05-10 21:43:00,
2013-05-10 17:53:00,91.0,63.0,-100.00,West,265,8.0,-999.0,38,0.00,,,-99.99,481.200012,,2013-05-10 21:53:00,
2013-05-10 18:02:00,90.0,63.0,-100.00,WNW,288,6.0,-999.0,39,0.00,,,-99.99,377.100006,,2013-05-10 22:02:00,
2013-05-10 18:13:00,90.0,63.0,-100.00,WNW,288,6.0,-999.0,39,0.00,,,-99.99,377.100006,,2013-05-10 22:13:00,
2013-05-10 18:22:00,91.0,63.0,-100.00,WNW,301,7.0,-999.0,39,0.00,,,-99.99,344.799988,,2013-05-10 22:22:00,
2013-05-10 18:32:00,89.0,63.0,-100.00,WNW,302,6.0,-999.0,42,0.00,,,-99.99,152.600006,,2013-05-10 22:32:00,
2013-05-10 18:42:00,89.0,63.0,-100.00,WNW,302,6.0,-999.0,42,0.00,,,-99.99,152.600006,,2013-05-10 22:42:00,
2013-05-10 18:53:00,89.0,64.0,-100.00,WNW,301,6.0,-999.0,43,0.00,,,-99.99,200.899994,,2013-05-10 22:53:00,
2013-05-10 19:02:00,89.0,64.0,-100.00,WNW,290,6.0,-999.0,43,0.00,,,-99.99,152.399994,,2013-05-10 23:02:00,
2013-05-10 19:12:00,87.0,64.0,-100.00,WNW,286,5.0,-999.0,45,0.00,,,-99.99,87.900002,,2013-05-10 23:12:00,
2013-05-10 19:22:00,87.0,64.0,-100.00,WNW,286,5.0,-999.0,45,0.00,,,-99.99,87.900002,,2013-05-10 23:22:00,
2013-05-10 19:33:00,87.0,64.0,-100.00,West,277,5.0,-999.0,47,0.00,,,-99.99,76.300003,,2013-05-10 23:33:00,
2013-05-10 19:42:00,85.0,66.0,-100.00,WNW,289,6.0,-999.0,51,0.00,,,-99.99,61.099998,,2013-05-10 23:42:00,
2013-05-10 19:52:00,85.0,66.0,-100.00,WNW,289,6.0,-999.0,51,0.00,,,-99.99,61.099998,,2013-05-10 23:52:00,
2013-05-10 20:02:00,84.0,66.0,-100.00,WNW,287,6.0,-999.0,55,0.00,,,-99.99,36.299999,,2013-05-11 00:02:00,
2013-05-10 20:11:00,83.0,67.0,-100.00,NW,322,5.0,-999.0,57,0.00,,,-99.99,15.600000,,2013-05-11 00:11:00,
2013-05-10 20:21:00,83.0,67.0,-100.00,NW,322,5.0,-999.0,57,0.00,,,-99.99,15.600000,,2013-05-11 00:21:00,
2013-05-10 20:32:00,82.0,68.0,-100.00,East,93,8.0,-999.0,62,0.00,,,-99.99,1.400000,,2013-05-11 00:32:00,
2013-05-10 20:42:00,80.0,67.0,-100.00,ESE,113,10.0,-999.0,64,0.00,,,-99.99,0.000000,,2013-05-11 00:42:00,
2013-05-10 20:52:00,80.0,67.0,-100.00,ESE,113,10.0,-999.0,64,0.00,,,-99.99,0.000000,,2013-05-11 00:52:00,
2013-05-10 21:01:00,78.0,67.0,-100.00,SE,135,10.0,-999.0,68,0.00,,,-99.99,0.000000,,2013-05-11 01:01:00,
2013-05-10 21:11:00,77.0,67.0,-100.00,SSE,147,8.0,-999.0,71,0.00,,,-99.99,0.000000,,2013-05-11 01:11:00,
2013-05-10 21:21:00,77.0,67.0,-100.00,SSE,147,8.0,-999.0,71,0.00,,,-99.99,0.000000,,2013-05-11 01:21:00,
2013-05-10 21:32:00,77.0,68.0,-100.00,South,171,7.0,-999.0,73,0.00,,,-99.99,0.000000,,2013-05-11 01:32:00,
2013-05-10 21:42:00,77.0,68.0,-100.00,SSW,196,7.0,-999.0,73,0.00,,,-99.99,0.000000,,2013-05-11 01:42:00,
2013-05-10 21:52:00,77.0,68.0,-100.00,SSW,196,7.0,-999.0,73,0.00,,,-99.99,0.000000,,2013-05-11 01:52:00,
2013-05-10 22:02:00,76.0,68.0,-100.00,SSW,199,8.0,-999.0,74,0.00,,,-99.99,0.000000,,2013-05-11 02:02:00,
2013-05-10 22:11:00,75.0,67.0,-100.00,SSW,209,7.0,-999.0,76,0.00,,,-99.99,0.000000,,2013-05-11 02:11:00,
2013-05-10 22:22:00,75.0,67.0,-100.00,SSW,209,7.0,-999.0,76,0.00,,,-99.99,0.000000,,2013-05-11 02:22:00,
2013-05-10 22:32:00,75.0,68.0,-100.00,SW,220,7.0,-999.0,77,0.00,,,-99.99,0.000000,,2013-05-11 02:32:00,
2013-05-10 22:42:00,74.0,67.0,-100.00,SW,222,9.0,-999.0,78,0.00,,,-99.99,0.000000,,2013-05-11 02:42:00,
2013-05-10 22:52:00,74.0,67.0,-100.00,SW,222,9.0,-999.0,78,0.00,,,-99.99,0.000000,,2013-05-11 02:52:00,
2013-05-10 23:01:00,74.0,67.0,-100.00,SW,221,7.0,-999.0,78,0.00,,,-99.99,0.000000,,2013-05-11 03:01:00,
2013-05-10 23:11:00,74.0,67.0,-100.00,SW,233,7.0,-999.0,79,0.00,,,-99.99,0.000000,,2013-05-11 03:11:00,
2013-05-10 23:21:00,74.0,67.0,-100.00,SW,233,7.0,-999.0,79,0.00,,,-99.99,0.000000,,2013-05-11 03:21:00,
2013-05-10 23:33:00,73.0,67.0,-100.00,SW,232,6.0,-999.0,80,0.00,,,-99.99,0.000000,,2013-05-11 03:33:00,
2013-05-10 23:42:00,73.0,67.0,-100.00,SW,220,6.0,-999.0,82,0.00,,,-99.99,0.000000,,2013-05-11 03:42:00,
2013-05-10 23:53:00,73.0,67.0,-100.00,SW,220,6.0,-999.0,82,0.00,,,-99.99,0.000000,,2013-05-11 03:53:00,